Terminal Aerodrome Forecast
Issued by NWS

Home | Current Version | Previous Version | Text Only | Print | Product List | Glossary On
Versions: 1 2 3 4 5 6 7 8 9 10 11 12 13 14 15 16 17 18 19 20 21 22 23 24 25 26 27 28 29 30 31 32 33 34 35 36 37 38 39 40 41 42 43 44 45 46 47 48 49 50
715
FTUS41 KCTP 121146
TAFAOO
TAF
KAOO 121146Z 1212/1312 22006KT P6SM SCT250
     FM122000 24009KT 2SM -SN OVC030
     FM122200 24010KT 1SM -SN OVC018
     FM130300 28010G17KT 1 1/2SM -SN OVC025
     FM130600 29015G23KT 4SM -SN OVC035=

USA.gov is the U.S. government's official web portal to all federal, state and local government web resources and services.